sensor_id;sensor_type;location;lat;lon;timestamp;pressure;altitude;pressure_sealevel;temperature
79089;BMP280;68489;50.286;9.452;2023-04-28T00:01:32;97294.06;;;11.19
79089;BMP280;68489;50.286;9.452;2023-04-28T00:03:57;97301.47;;;11.24
79089;BMP280;68489;50.286;9.452;2023-04-28T00:06:23;97294.50;;;11.18
79089;BMP280;68489;50.286;9.452;2023-04-28T00:08:48;97294.06;;;11.19
79089;BMP280;68489;50.286;9.452;2023-04-28T00:11:13;97290.81;;;11.15
79089;BMP280;68489;50.286;9.452;2023-04-28T00:13:38;97288.75;;;11.19
79089;BMP280;68489;50.286;9.452;2023-04-28T00:16:04;97284.78;;;11.24
79089;BMP280;68489;50.286;9.452;2023-04-28T00:18:29;97272.91;;;11.16
79089;BMP280;68489;50.286;9.452;2023-04-28T00:20:55;97274.38;;;11.07
79089;BMP280;68489;50.286;9.452;2023-04-28T00:23:20;97266.25;;;11.11
79089;BMP280;68489;50.286;9.452;2023-04-28T00:25:52;97265.81;;;11.12
79089;BMP280;68489;50.286;9.452;2023-04-28T00:28:18;97270.69;;;11.05
79089;BMP280;68489;50.286;9.452;2023-04-28T00:30:43;97262.69;;;11.05
79089;BMP280;68489;50.286;9.452;2023-04-28T00:33:09;97253.53;;;11.06
79089;BMP280;68489;50.286;9.452;2023-04-28T00:35:34;97259.72;;;11.03
79089;BMP280;68489;50.286;9.452;2023-04-28T00:37:59;97255.13;;;11.03
79089;BMP280;68489;50.286;9.452;2023-04-28T00:40:32;97243.75;;;11.03
79089;BMP280;68489;50.286;9.452;2023-04-28T00:42:58;97246.41;;;11.03
79089;BMP280;68489;50.286;9.452;2023-04-28T00:45:23;97234.72;;;11.00
79089;BMP280;68489;50.286;9.452;2023-04-28T00:47:48;97233.09;;;11.03
79089;BMP280;68489;50.286;9.452;2023-04-28T00:50:15;97232.22;;;10.97
79089;BMP280;68489;50.286;9.452;2023-04-28T00:52:41;97224.06;;;11.00
79089;BMP280;68489;50.286;9.452;2023-04-28T00:55:08;97221.56;;;10.97
79089;BMP280;68489;50.286;9.452;2023-04-28T00:57:34;97223.78;;;10.98
79089;BMP280;68489;50.286;9.452;2023-04-28T01:00:00;97223.75;;;10.89
79089;BMP280;68489;50.286;9.452;2023-04-28T01:02:26;97225.41;;;10.96
79089;BMP280;68489;50.286;9.452;2023-04-28T01:04:53;97230.28;;;10.97
79089;BMP280;68489;50.286;9.452;2023-04-28T01:07:20;97231.16;;;10.94
79089;BMP280;68489;50.286;9.452;2023-04-28T01:09:45;97215.94;;;10.95
79089;BMP280;68489;50.286;9.452;2023-04-28T01:12:12;97213.69;;;10.93
79089;BMP280;68489;50.286;9.452;2023-04-28T01:14:37;97208.53;;;10.90
79089;BMP280;68489;50.286;9.452;2023-04-28T01:17:02;97212.50;;;10.85
79089;BMP280;68489;50.286;9.452;2023-04-28T01:19:28;97215.19;;;10.85
79089;BMP280;68489;50.286;9.452;2023-04-28T01:21:53;97212.66;;;10.81
79089;BMP280;68489;50.286;9.452;2023-04-28T01:24:19;97203.94;;;10.81
79089;BMP280;68489;50.286;9.452;2023-04-28T01:26:44;97206.16;;;10.82
79089;BMP280;68489;50.286;9.452;2023-04-28T01:29:10;97198.28;;;10.79
79089;BMP280;68489;50.286;9.452;2023-04-28T01:31:35;97199.47;;;10.78
79089;BMP280;68489;50.286;9.452;2023-04-28T01:34:01;97202.56;;;10.76
79089;BMP280;68489;50.286;9.452;2023-04-28T01:36:26;97200.53;;;10.80
79089;BMP280;68489;50.286;9.452;2023-04-28T01:38:52;97194.31;;;10.83
79089;BMP280;68489;50.286;9.452;2023-04-28T01:41:17;97196.81;;;10.78
79089;BMP280;68489;50.286;9.452;2023-04-28T01:43:43;97190.63;;;10.81
79089;BMP280;68489;50.286;9.452;2023-04-28T01:46:09;97191.91;;;10.76
79089;BMP280;68489;50.286;9.452;2023-04-28T01:48:34;97183.94;;;10.76
79089;BMP280;68489;50.286;9.452;2023-04-28T01:50:59;97181.75;;;10.75
79089;BMP280;68489;50.286;9.452;2023-04-28T01:53:25;97185.56;;;10.74
79089;BMP280;68489;50.286;9.452;2023-04-28T01:55:50;97182.63;;;10.72
79089;BMP280;68489;50.286;9.452;2023-04-28T01:58:15;97182.63;;;10.72
79089;BMP280;68489;50.286;9.452;2023-04-28T02:00:41;97179.22;;;10.71
79089;BMP280;68489;50.286;9.452;2023-04-28T02:03:06;97170.63;;;10.67
79089;BMP280;68489;50.286;9.452;2023-04-28T02:05:31;97173.47;;;10.73
79089;BMP280;68489;50.286;9.452;2023-04-28T02:07:56;97175.22;;;10.76
79089;BMP280;68489;50.286;9.452;2023-04-28T02:10:22;97177.41;;;10.68
79089;BMP280;68489;50.286;9.452;2023-04-28T02:12:47;97157.19;;;10.71
79089;BMP280;68489;50.286;9.452;2023-04-28T02:15:12;97164.72;;;10.63
79089;BMP280;68489;50.286;9.452;2023-04-28T02:17:38;97157.16;;;10.61
79089;BMP280;68489;50.286;9.452;2023-04-28T02:20:03;97156.75;;;10.63
79089;BMP280;68489;50.286;9.452;2023-04-28T02:22:29;97148.00;;;10.62
79089;BMP280;68489;50.286;9.452;2023-04-28T02:24:54;97146.53;;;10.61
79089;BMP280;68489;50.286;9.452;2023-04-28T02:27:20;97149.44;;;10.54
79089;BMP280;68489;50.286;9.452;2023-04-28T02:29:45;97141.78;;;10.56
79089;BMP280;68489;50.286;9.452;2023-04-28T02:32:10;97130.09;;;10.54
79089;BMP280;68489;50.286;9.452;2023-04-28T02:34:35;97138.38;;;10.47
79089;BMP280;68489;50.286;9.452;2023-04-28T02:37:01;97133.78;;;10.47
79089;BMP280;68489;50.286;9.452;2023-04-28T02:39:26;97128.78;;;10.49
79089;BMP280;68489;50.286;9.452;2023-04-28T02:41:54;97124.75;;;10.45
79089;BMP280;68489;50.286;9.452;2023-04-28T02:44:19;97128.47;;;10.47
79089;BMP280;68489;50.286;9.452;2023-04-28T02:46:45;97127.41;;;10.45
79089;BMP280;68489;50.286;9.452;2023-04-28T02:49:10;97131.44;;;10.49
79089;BMP280;68489;50.286;9.452;2023-04-28T02:51:36;97135.00;;;10.55
79089;BMP280;68489;50.286;9.452;2023-04-28T02:54:01;97128.19;;;10.54
79089;BMP280;68489;50.286;9.452;2023-04-28T02:56:26;97119.78;;;10.56
79089;BMP280;68489;50.286;9.452;2023-04-28T02:58:53;97128.19;;;10.54
79089;BMP280;68489;50.286;9.452;2023-04-28T03:01:19;97116.72;;;10.57
79089;BMP280;68489;50.286;9.452;2023-04-28T03:03:44;97123.03;;;10.60
79089;BMP280;68489;50.286;9.452;2023-04-28T03:06:09;97115.81;;;10.60
79089;BMP280;68489;50.286;9.452;2023-04-28T03:08:34;97119.53;;;10.63
79089;BMP280;68489;50.286;9.452;2023-04-28T03:11:00;97117.59;;;10.63
79089;BMP280;68489;50.286;9.452;2023-04-28T03:13:25;97113.16;;;10.60
79089;BMP280;68489;50.286;9.452;2023-04-28T03:15:51;97111.94;;;10.52
79089;BMP280;68489;50.286;9.452;2023-04-28T03:18:16;97111.06;;;10.46
79089;BMP280;68489;50.286;9.452;2023-04-28T03:20:42;97107.47;;;10.40
79089;BMP280;68489;50.286;9.452;2023-04-28T03:23:08;97107.56;;;10.27
79089;BMP280;68489;50.286;9.452;2023-04-28T03:25:33;97106.75;;;10.18
79089;BMP280;68489;50.286;9.452;2023-04-28T03:27:58;97098.75;;;10.08
79089;BMP280;68489;50.286;9.452;2023-04-28T03:30:23;97100.38;;;10.06
79089;BMP280;68489;50.286;9.452;2023-04-28T03:32:48;97097.84;;;10.02
79089;BMP280;68489;50.286;9.452;2023-04-28T03:35:14;97097.78;;;9.93
79089;BMP280;68489;50.286;9.452;2023-04-28T03:37:39;97097.00;;;9.83
79089;BMP280;68489;50.286;9.452;2023-04-28T03:40:05;97090.00;;;9.77
79089;BMP280;68489;50.286;9.452;2023-04-28T03:42:30;97087.81;;;9.75
79089;BMP280;68489;50.286;9.452;2023-04-28T03:44:55;97091.63;;;9.74
79089;BMP280;68489;50.286;9.452;2023-04-28T03:47:21;97092.94;;;9.70
79089;BMP280;68489;50.286;9.452;2023-04-28T03:49:46;97094.94;;;9.66
79089;BMP280;68489;50.286;9.452;2023-04-28T03:52:11;97086.41;;;9.61
79089;BMP280;68489;50.286;9.452;2023-04-28T03:54:36;97094.03;;;9.59
79089;BMP280;68489;50.286;9.452;2023-04-28T03:57:02;97083.88;;;9.58
79089;BMP280;68489;50.286;9.452;2023-04-28T03:59:28;97067.94;;;9.58
79089;BMP280;68489;50.286;9.452;2023-04-28T04:01:53;97071.00;;;9.56
79089;BMP280;68489;50.286;9.452;2023-04-28T04:04:19;97070.59;;;9.58
79089;BMP280;68489;50.286;9.452;2023-04-28T04:06:44;97061.13;;;9.57
79089;BMP280;68489;50.286;9.452;2023-04-28T04:09:09;97056.16;;;9.59
79089;BMP280;68489;50.286;9.452;2023-04-28T04:11:34;97055.69;;;9.60
79089;BMP280;68489;50.286;9.452;2023-04-28T04:14:00;97058.34;;;9.60
79089;BMP280;68489;50.286;9.452;2023-04-28T04:16:25;97057.94;;;9.62
79089;BMP280;68489;50.286;9.452;2023-04-28T04:18:50;97059.28;;;9.67
79089;BMP280;68489;50.286;9.452;2023-04-28T04:21:15;97066.81;;;9.68
79089;BMP280;68489;50.286;9.452;2023-04-28T04:23:41;97065.47;;;9.63
79089;BMP280;68489;50.286;9.452;2023-04-28T04:26:06;97055.91;;;9.66
79089;BMP280;68489;50.286;9.452;2023-04-28T04:28:31;97059.53;;;9.59
79089;BMP280;68489;50.286;9.452;2023-04-28T04:30:56;97057.31;;;9.58
79089;BMP280;68489;50.286;9.452;2023-04-28T04:33:22;97054.66;;;9.58
79089;BMP280;68489;50.286;9.452;2023-04-28T04:35:47;97044.88;;;9.55
79089;BMP280;68489;50.286;9.452;2023-04-28T04:38:12;97049.34;;;9.58
79089;BMP280;68489;50.286;9.452;2023-04-28T04:40:37;97040.16;;;9.50
79089;BMP280;68489;50.286;9.452;2023-04-28T04:43:03;97039.34;;;9.40
79089;BMP280;68489;50.286;9.452;2023-04-28T04:45:29;97041.03;;;9.47
79089;BMP280;68489;50.286;9.452;2023-04-28T04:47:54;97042.75;;;9.41
79089;BMP280;68489;50.286;9.452;2023-04-28T04:50:20;97043.06;;;9.43
79089;BMP280;68489;50.286;9.452;2023-04-28T04:52:45;97038.13;;;9.32
79089;BMP280;68489;50.286;9.452;2023-04-28T04:55:10;97044.28;;;9.29
79089;BMP280;68489;50.286;9.452;2023-04-28T04:57:36;97046.94;;;9.29
79089;BMP280;68489;50.286;9.452;2023-04-28T05:00:02;97052.44;;;9.34
79089;BMP280;68489;50.286;9.452;2023-04-28T05:02:28;97058.19;;;9.33
79089;BMP280;68489;50.286;9.452;2023-04-28T05:04:53;97055.09;;;9.34
79089;BMP280;68489;50.286;9.452;2023-04-28T05:07:19;97056.88;;;9.37
79089;BMP280;68489;50.286;9.452;2023-04-28T05:09:44;97051.94;;;9.49
79089;BMP280;68489;50.286;9.452;2023-04-28T05:12:09;97052.25;;;9.51
79089;BMP280;68489;50.286;9.452;2023-04-28T05:14:35;97053.03;;;9.60
79089;BMP280;68489;50.286;9.452;2023-04-28T05:17:00;97061.44;;;9.59
79089;BMP280;68489;50.286;9.452;2023-04-28T05:19:25;97063.03;;;9.56
79089;BMP280;68489;50.286;9.452;2023-04-28T05:21:50;97064.66;;;9.54
79089;BMP280;68489;50.286;9.452;2023-04-28T05:24:20;97069.53;;;9.55
79089;BMP280;68489;50.286;9.452;2023-04-28T05:26:47;97072.75;;;9.50
79089;BMP280;68489;50.286;9.452;2023-04-28T05:29:12;97070.97;;;9.47
79089;BMP280;68489;50.286;9.452;2023-04-28T05:31:38;97075.13;;;9.57
79089;BMP280;68489;50.286;9.452;2023-04-28T05:34:03;97083.78;;;9.49
79089;BMP280;68489;50.286;9.452;2023-04-28T05:36:28;97091.00;;;9.48
79089;BMP280;68489;50.286;9.452;2023-04-28T05:38:53;97098.56;;;9.50
79089;BMP280;68489;50.286;9.452;2023-04-28T05:41:19;97095.72;;;9.44
79089;BMP280;68489;50.286;9.452;2023-04-28T05:43:44;97103.03;;;9.40
79089;BMP280;68489;50.286;9.452;2023-04-28T05:46:10;97093.66;;;9.48
79089;BMP280;68489;50.286;9.452;2023-04-28T05:48:35;97083.88;;;9.36
79089;BMP280;68489;50.286;9.452;2023-04-28T05:51:01;97068.16;;;9.29
79089;BMP280;68489;50.286;9.452;2023-04-28T05:53:26;97061.53;;;9.11
79089;BMP280;68489;50.286;9.452;2023-04-28T05:55:51;97049.19;;;9.18
79089;BMP280;68489;50.286;9.452;2023-04-28T05:58:16;97044.72;;;9.05
79089;BMP280;68489;50.286;9.452;2023-04-28T06:00:42;97042.00;;;8.83
79089;BMP280;68489;50.286;9.452;2023-04-28T06:03:07;97038.28;;;8.81
79089;BMP280;68489;50.286;9.452;2023-04-28T06:05:35;97047.19;;;8.74
79089;BMP280;68489;50.286;9.452;2023-04-28T06:08:00;97055.06;;;8.65
79089;BMP280;68489;50.286;9.452;2023-04-28T06:13:02;97075.63;;;8.74
79089;BMP280;68489;50.286;9.452;2023-04-28T06:15:29;97091.75;;;8.67
79089;BMP280;68489;50.286;9.452;2023-04-28T06:17:54;97084.22;;;8.65
79089;BMP280;68489;50.286;9.452;2023-04-28T06:20:20;97085.03;;;8.75
79089;BMP280;68489;50.286;9.452;2023-04-28T06:22:45;97080.19;;;8.73
79089;BMP280;68489;50.286;9.452;2023-04-28T06:25:10;97070.56;;;8.67
79089;BMP280;68489;50.286;9.452;2023-04-28T06:27:35;97073.94;;;8.54
79089;BMP280;68489;50.286;9.452;2023-04-28T06:30:01;97077.03;;;8.53
79089;BMP280;68489;50.286;9.452;2023-04-28T06:32:26;97082.41;;;8.49
79089;BMP280;68489;50.286;9.452;2023-04-28T06:34:51;97072.34;;;8.57
79089;BMP280;68489;50.286;9.452;2023-04-28T06:37:16;97074.78;;;8.51
79089;BMP280;68489;50.286;9.452;2023-04-28T06:39:42;97063.22;;;8.58
79089;BMP280;68489;50.286;9.452;2023-04-28T06:42:08;97075.72;;;8.70
79089;BMP280;68489;50.286;9.452;2023-04-28T06:44:33;97062.34;;;8.74
79089;BMP280;68489;50.286;9.452;2023-04-28T06:46:58;97064.47;;;8.92
79089;BMP280;68489;50.286;9.452;2023-04-28T06:49:24;97060.19;;;8.94
79089;BMP280;68489;50.286;9.452;2023-04-28T06:51:49;97062.03;;;8.97
79089;BMP280;68489;50.286;9.452;2023-04-28T06:54:14;97062.56;;;8.79
79089;BMP280;68489;50.286;9.452;2023-04-28T06:56:40;97056.44;;;8.70
79089;BMP280;68489;50.286;9.452;2023-04-28T06:59:06;97067.91;;;8.67
79089;BMP280;68489;50.286;9.452;2023-04-28T07:01:31;97062.34;;;8.74
79089;BMP280;68489;50.286;9.452;2023-04-28T07:03:56;97068.59;;;8.80
79089;BMP280;68489;50.286;9.452;2023-04-28T07:06:21;97062.88;;;8.69
79089;BMP280;68489;50.286;9.452;2023-04-28T07:08:47;97065.75;;;8.74
79089;BMP280;68489;50.286;9.452;2023-04-28T07:11:12;97072.56;;;8.75
79089;BMP280;68489;50.286;9.452;2023-04-28T07:13:37;97078.34;;;8.83
79089;BMP280;68489;50.286;9.452;2023-04-28T07:16:03;97077.41;;;8.77
79089;BMP280;68489;50.286;9.452;2023-04-28T07:18:28;97090.88;;;8.82
79089;BMP280;68489;50.286;9.452;2023-04-28T07:20:53;97080.69;;;8.81
79089;BMP280;68489;50.286;9.452;2023-04-28T07:23:18;97086.00;;;8.81
79089;BMP280;68489;50.286;9.452;2023-04-28T07:25:44;97076.44;;;8.96
79089;BMP280;68489;50.286;9.452;2023-04-28T07:28:09;97079.91;;;9.06
79089;BMP280;68489;50.286;9.452;2023-04-28T07:30:34;97083.75;;;8.92
79089;BMP280;68489;50.286;9.452;2023-04-28T07:33:00;97080.44;;;9.01
79089;BMP280;68489;50.286;9.452;2023-04-28T07:35:26;97066.53;;;9.09
79089;BMP280;68489;50.286;9.452;2023-04-28T07:37:52;97057.31;;;9.01
79089;BMP280;68489;50.286;9.452;2023-04-28T07:40:18;97066.97;;;9.08
79089;BMP280;68489;50.286;9.452;2023-04-28T07:42:44;97060.97;;;8.95
79089;BMP280;68489;50.286;9.452;2023-04-28T07:45:10;97052.16;;;8.85
79089;BMP280;68489;50.286;9.452;2023-04-28T07:47:35;97043.47;;;8.84
79089;BMP280;68489;50.286;9.452;2023-04-28T07:50:02;97039.97;;;8.75
79089;BMP280;68489;50.286;9.452;2023-04-28T07:52:29;97029.41;;;8.62
79089;BMP280;68489;50.286;9.452;2023-04-28T07:54:55;97026.81;;;8.84
79089;BMP280;68489;50.286;9.452;2023-04-28T07:57:20;97022.53;;;8.64
79089;BMP280;68489;50.286;9.452;2023-04-28T07:59:46;97017.41;;;8.70
79089;BMP280;68489;50.286;9.452;2023-04-28T08:02:11;97021.13;;;8.73
79089;BMP280;68489;50.286;9.452;2023-04-28T08:04:38;97018.06;;;8.61
79089;BMP280;68489;50.286;9.452;2023-04-28T08:07:03;97006.72;;;8.61
79089;BMP280;68489;50.286;9.452;2023-04-28T08:09:29;96990.50;;;8.59
79089;BMP280;68489;50.286;9.452;2023-04-28T08:11:54;96997.28;;;8.60
79089;BMP280;68489;50.286;9.452;2023-04-28T08:14:19;96998.22;;;8.66
79089;BMP280;68489;50.286;9.452;2023-04-28T08:16:45;96987.75;;;8.62
79089;BMP280;68489;50.286;9.452;2023-04-28T08:19:11;96984.31;;;8.75
79089;BMP280;68489;50.286;9.452;2023-04-28T08:21:36;96989.16;;;8.89
79089;BMP280;68489;50.286;9.452;2023-04-28T08:24:02;97002.34;;;9.02
79089;BMP280;68489;50.286;9.452;2023-04-28T08:26:27;97010.34;;;9.24
79089;BMP280;68489;50.286;9.452;2023-04-28T08:28:52;97011.66;;;9.19
79089;BMP280;68489;50.286;9.452;2023-04-28T08:31:17;97012.13;;;9.27
79089;BMP280;68489;50.286;9.452;2023-04-28T08:33:43;97017.75;;;9.29
79089;BMP280;68489;50.286;9.452;2023-04-28T08:36:09;97013.56;;;9.41
79089;BMP280;68489;50.286;9.452;2023-04-28T08:38:38;97015.47;;;9.40
79089;BMP280;68489;50.286;9.452;2023-04-28T08:41:04;97025.03;;;9.59
79089;BMP280;68489;50.286;9.452;2023-04-28T08:43:34;97037.50;;;9.72
79089;BMP280;68489;50.286;9.452;2023-04-28T08:46:05;97035.31;;;9.79
79089;BMP280;68489;50.286;9.452;2023-04-28T08:48:39;97040.00;;;9.75
79089;BMP280;68489;50.286;9.452;2023-04-28T08:51:06;97041.84;;;9.66
79089;BMP280;68489;50.286;9.452;2023-04-28T08:53:38;97052.00;;;9.80
79089;BMP280;68489;50.286;9.452;2023-04-28T08:56:07;97056.78;;;9.94
79089;BMP280;68489;50.286;9.452;2023-04-28T08:58:34;97055.03;;;10.00
79089;BMP280;68489;50.286;9.452;2023-04-28T09:00:59;97062.75;;;10.07
79089;BMP280;68489;50.286;9.452;2023-04-28T09:03:28;97055.38;;;10.11
79089;BMP280;68489;50.286;9.452;2023-04-28T09:05:54;97064.97;;;10.09
79089;BMP280;68489;50.286;9.452;2023-04-28T09:08:19;97055.31;;;10.24
79089;BMP280;68489;50.286;9.452;2023-04-28T09:10:44;97053.56;;;10.40
79089;BMP280;68489;50.286;9.452;2023-04-28T09:13:23;97049.59;;;10.44
79089;BMP280;68489;50.286;9.452;2023-04-28T09:15:48;97047.59;;;10.57
79089;BMP280;68489;50.286;9.452;2023-04-28T09:18:14;97046.84;;;10.66
79089;BMP280;68489;50.286;9.452;2023-04-28T09:20:40;97046.44;;;11.04
79089;BMP280;68489;50.286;9.452;2023-04-28T09:23:20;97042.00;;;11.20
79089;BMP280;68489;50.286;9.452;2023-04-28T09:26:05;97038.28;;;11.17
79089;BMP280;68489;50.286;9.452;2023-04-28T09:28:32;97039.91;;;11.42
79089;BMP280;68489;50.286;9.452;2023-04-28T09:30:58;97033.81;;;11.51
79089;BMP280;68489;50.286;9.452;2023-04-28T09:33:24;97044.03;;;11.52
79089;BMP280;68489;50.286;9.452;2023-04-28T09:35:49;97037.81;;;11.46
79089;BMP280;68489;50.286;9.452;2023-04-28T09:38:16;97049.50;;;11.58
79089;BMP280;68489;50.286;9.452;2023-04-28T09:43:32;97053.41;;;11.90
79089;BMP280;68489;50.286;9.452;2023-04-28T09:46:00;97056.72;;;11.67
79089;BMP280;68489;50.286;9.452;2023-04-28T09:48:35;97056.38;;;11.83
79089;BMP280;68489;50.286;9.452;2023-04-28T09:51:03;97054.41;;;11.93
79089;BMP280;68489;50.286;9.452;2023-04-28T09:53:30;97051.97;;;11.61
79089;BMP280;68489;50.286;9.452;2023-04-28T09:55:57;97052.50;;;11.93
79089;BMP280;68489;50.286;9.452;2023-04-28T09:58:24;97047.94;;;11.84
79089;BMP280;68489;50.286;9.452;2023-04-28T10:00:54;97052.50;;;11.93
79089;BMP280;68489;50.286;9.452;2023-04-28T10:03:22;97051.09;;;11.74
79089;BMP280;68489;50.286;9.452;2023-04-28T10:05:48;97052.25;;;11.82
79089;BMP280;68489;50.286;9.452;2023-04-28T10:08:15;97038.28;;;11.96
79089;BMP280;68489;50.286;9.452;2023-04-28T10:10:40;97042.53;;;12.03
79089;BMP280;68489;50.286;9.452;2023-04-28T10:13:07;97043.22;;;12.46
79089;BMP280;68489;50.286;9.452;2023-04-28T10:15:33;97042.34;;;12.63
79089;BMP280;68489;50.286;9.452;2023-04-28T10:17:59;97037.97;;;12.75
79089;BMP280;68489;50.286;9.452;2023-04-28T10:20:25;97040.16;;;13.01
79089;BMP280;68489;50.286;9.452;2023-04-28T10:25:56;97029.16;;;13.23
79089;BMP280;68489;50.286;9.452;2023-04-28T10:28:24;97028.41;;;13.37
79089;BMP280;68489;50.286;9.452;2023-04-28T10:31:12;97031.81;;;13.37
79089;BMP280;68489;50.286;9.452;2023-04-28T10:33:39;97033.56;;;13.26
79089;BMP280;68489;50.286;9.452;2023-04-28T10:36:05;97032.28;;;13.36
79089;BMP280;68489;50.286;9.452;2023-04-28T10:38:31;97034.84;;;13.45
79089;BMP280;68489;50.286;9.452;2023-04-28T10:40:57;97031.72;;;13.47
79089;BMP280;68489;50.286;9.452;2023-04-28T10:58:40;97015.09;;;14.42
79089;BMP280;68489;50.286;9.452;2023-04-28T11:06:25;97030.47;;;14.94
79089;BMP280;68489;50.286;9.452;2023-04-28T11:08:59;97032.00;;;15.01
79089;BMP280;68489;50.286;9.452;2023-04-28T11:11:32;97033.56;;;15.13
79089;BMP280;68489;50.286;9.452;2023-04-28T11:16:53;97027.22;;;14.64
79089;BMP280;68489;50.286;9.452;2023-04-28T11:21:55;97023.81;;;14.84
79089;BMP280;68489;50.286;9.452;2023-04-28T11:24:22;97017.44;;;15.07
79089;BMP280;68489;50.286;9.452;2023-04-28T11:26:50;97015.97;;;14.80
79089;BMP280;68489;50.286;9.452;2023-04-28T11:29:15;97018.38;;;15.04
79089;BMP280;68489;50.286;9.452;2023-04-28T11:31:48;97019.09;;;15.05
79089;BMP280;68489;50.286;9.452;2023-04-28T11:34:18;97008.56;;;14.95
79089;BMP280;68489;50.286;9.452;2023-04-28T11:36:44;97001.66;;;15.15
79089;BMP280;68489;50.286;9.452;2023-04-28T11:39:11;97005.22;;;15.64
79089;BMP280;68489;50.286;9.452;2023-04-28T11:41:41;97007.84;;;16.01
79089;BMP280;68489;50.286;9.452;2023-04-28T11:44:18;97008.44;;;16.22
79089;BMP280;68489;50.286;9.452;2023-04-28T11:46:48;97007.53;;;16.47
79089;BMP280;68489;50.286;9.452;2023-04-28T11:49:21;97007.81;;;16.55
79089;BMP280;68489;50.286;9.452;2023-04-28T11:51:49;97014.91;;;16.64
79089;BMP280;68489;50.286;9.452;2023-04-28T11:54:24;97013.75;;;16.98
79089;BMP280;68489;50.286;9.452;2023-04-28T11:56:50;97015.72;;;17.26
79089;BMP280;68489;50.286;9.452;2023-04-28T11:59:16;97004.69;;;17.57
79089;BMP280;68489;50.286;9.452;2023-04-28T12:01:49;97006.06;;;17.86
79089;BMP280;68489;50.286;9.452;2023-04-28T12:04:34;96996.44;;;18.08
79089;BMP280;68489;50.286;9.452;2023-04-28T12:09:41;96996.31;;;18.71
79089;BMP280;68489;50.286;9.452;2023-04-28T12:12:41;96996.53;;;18.79
79089;BMP280;68489;50.286;9.452;2023-04-28T12:15:01;96996.75;;;18.81
79089;BMP280;68489;50.286;9.452;2023-04-28T12:17:37;96997.84;;;19.27
79089;BMP280;68489;50.286;9.452;2023-04-28T12:20:08;96995.97;;;20.08
79089;BMP280;68489;50.286;9.452;2023-04-28T12:22:44;96997.88;;;20.32
79089;BMP280;68489;50.286;9.452;2023-04-28T12:25:13;96998.66;;;20.27
79089;BMP280;68489;50.286;9.452;2023-04-28T12:27:40;97002.31;;;20.11
79089;BMP280;68489;50.286;9.452;2023-04-28T12:30:24;97004.41;;;19.80
79089;BMP280;68489;50.286;9.452;2023-04-28T12:32:50;97003.88;;;19.39
79089;BMP280;68489;50.286;9.452;2023-04-28T12:35:15;97000.00;;;18.74
79089;BMP280;68489;50.286;9.452;2023-04-28T12:37:41;97002.63;;;18.44
79089;BMP280;68489;50.286;9.452;2023-04-28T12:40:08;96999.47;;;17.87
79089;BMP280;68489;50.286;9.452;2023-04-28T12:42:34;97003.19;;;17.79
79089;BMP280;68489;50.286;9.452;2023-04-28T12:44:59;96999.50;;;17.76
79089;BMP280;68489;50.286;9.452;2023-04-28T12:47:24;97007.59;;;17.65
79089;BMP280;68489;50.286;9.452;2023-04-28T12:49:50;96994.66;;;17.52
79089;BMP280;68489;50.286;9.452;2023-04-28T12:52:20;96992.94;;;17.55
79089;BMP280;68489;50.286;9.452;2023-04-28T12:54:46;96983.41;;;17.59
79089;BMP280;68489;50.286;9.452;2023-04-28T12:57:15;96980.19;;;17.67
79089;BMP280;68489;50.286;9.452;2023-04-28T12:59:44;96989.19;;;17.80
79089;BMP280;68489;50.286;9.452;2023-04-28T13:02:11;96990.47;;;17.74
79089;BMP280;68489;50.286;9.452;2023-04-28T13:04:37;96996.25;;;17.89
79089;BMP280;68489;50.286;9.452;2023-04-28T13:07:02;97000.53;;;17.51
79089;BMP280;68489;50.286;9.452;2023-04-28T13:09:27;97005.19;;;17.33
79089;BMP280;68489;50.286;9.452;2023-04-28T13:11:53;97006.41;;;17.32
79089;BMP280;68489;50.286;9.452;2023-04-28T13:14:19;97005.19;;;17.17
79089;BMP280;68489;50.286;9.452;2023-04-28T13:16:45;96996.41;;;17.16
79089;BMP280;68489;50.286;9.452;2023-04-28T13:19:11;97002.50;;;17.22
79089;BMP280;68489;50.286;9.452;2023-04-28T13:21:38;96998.38;;;17.21
79089;BMP280;68489;50.286;9.452;2023-04-28T13:24:06;96985.38;;;17.42
79089;BMP280;68489;50.286;9.452;2023-04-28T13:26:31;96985.13;;;17.57
79089;BMP280;68489;50.286;9.452;2023-04-28T13:28:57;96987.88;;;17.06
79089;BMP280;68489;50.286;9.452;2023-04-28T13:31:22;96986.81;;;16.48
79089;BMP280;68489;50.286;9.452;2023-04-28T13:33:47;97001.44;;;16.41
79089;BMP280;68489;50.286;9.452;2023-04-28T13:36:13;97005.28;;;16.29
79089;BMP280;68489;50.286;9.452;2023-04-28T13:38:38;97007.91;;;16.12
79089;BMP280;68489;50.286;9.452;2023-04-28T13:41:03;97006.31;;;15.89
79089;BMP280;68489;50.286;9.452;2023-04-28T13:43:29;96993.97;;;15.97
79089;BMP280;68489;50.286;9.452;2023-04-28T13:45:55;96983.56;;;15.73
79089;BMP280;68489;50.286;9.452;2023-04-28T13:48:20;96987.56;;;15.89
79089;BMP280;68489;50.286;9.452;2023-04-28T13:50:46;96991.59;;;16.16
79089;BMP280;68489;50.286;9.452;2023-04-28T13:53:11;96988.84;;;16.04
79089;BMP280;68489;50.286;9.452;2023-04-28T13:55:36;96994.75;;;16.09
79089;BMP280;68489;50.286;9.452;2023-04-28T13:58:02;96983.56;;;16.21
79089;BMP280;68489;50.286;9.452;2023-04-28T14:00:30;96976.78;;;16.43
79089;BMP280;68489;50.286;9.452;2023-04-28T14:02:56;96972.72;;;16.98
79089;BMP280;68489;50.286;9.452;2023-04-28T14:05:22;96961.66;;;18.21
79089;BMP280;68489;50.286;9.452;2023-04-28T14:07:47;96952.78;;;19.90
79089;BMP280;68489;50.286;9.452;2023-04-28T14:10:12;96953.69;;;21.07
79089;BMP280;68489;50.286;9.452;2023-04-28T14:12:38;96947.00;;;20.82
79089;BMP280;68489;50.286;9.452;2023-04-28T14:15:04;96949.88;;;20.57
79089;BMP280;68489;50.286;9.452;2023-04-28T14:17:30;96961.66;;;20.41
79089;BMP280;68489;50.286;9.452;2023-04-28T14:19:56;96959.56;;;19.96
79089;BMP280;68489;50.286;9.452;2023-04-28T14:22:21;96952.91;;;19.60
79089;BMP280;68489;50.286;9.452;2023-04-28T14:24:46;96959.41;;;18.96
79089;BMP280;68489;50.286;9.452;2023-04-28T14:27:13;96961.22;;;18.47
79089;BMP280;68489;50.286;9.452;2023-04-28T14:29:39;96963.53;;;17.85
79089;BMP280;68489;50.286;9.452;2023-04-28T14:32:06;96979.06;;;17.23
79089;BMP280;68489;50.286;9.452;2023-04-28T14:34:31;96968.56;;;16.86
79089;BMP280;68489;50.286;9.452;2023-04-28T14:36:56;96957.09;;;16.57
79089;BMP280;68489;50.286;9.452;2023-04-28T14:39:21;96957.00;;;16.35
79089;BMP280;68489;50.286;9.452;2023-04-28T14:41:47;96963.84;;;16.24
79089;BMP280;68489;50.286;9.452;2023-04-28T14:44:12;96966.75;;;16.21
79089;BMP280;68489;50.286;9.452;2023-04-28T14:46:38;96955.22;;;16.15